createdAt,value
2019-05-05T00:00:08.550Z,99.90
2019-05-05T00:02:41.380Z,99.90
2019-05-05T00:05:27.246Z,99.90
2019-05-05T00:07:55.981Z,99.90
2019-05-05T00:10:29.103Z,99.90
2019-05-05T00:13:01.235Z,99.90
2019-05-05T00:15:47.336Z,99.90
2019-05-05T00:18:21.420Z,99.90
2019-05-05T00:20:51.257Z,99.90
2019-05-05T00:23:20.109Z,99.90
2019-05-05T00:25:48.856Z,99.90
2019-05-05T00:28:18.332Z,99.90
2019-05-05T00:30:46.885Z,99.90
2019-05-05T00:33:18.595Z,99.90
2019-05-05T00:35:47.291Z,99.90
2019-05-05T00:38:15.925Z,99.90
2019-05-05T00:40:44.673Z,99.90
2019-05-05T00:43:14.772Z,99.90
2019-05-05T00:45:45.245Z,99.90
2019-05-05T00:48:24.568Z,99.90
2019-05-05T00:50:56.279Z,99.90
2019-05-05T00:53:28.747Z,99.90
2019-05-05T00:55:57.365Z,99.90
2019-05-05T00:58:27.345Z,99.90
2019-05-05T01:00:58.120Z,99.90
2019-05-05T01:03:27.091Z,99.90
2019-05-05T01:05:57.867Z,99.90
2019-05-05T01:08:29.961Z,99.90
2019-05-05T01:10:58.957Z,99.90
2019-05-05T01:13:27.678Z,99.90
2019-05-05T01:15:56.422Z,99.90
2019-05-05T01:18:25.110Z,99.90
2019-05-05T01:20:55.192Z,99.90
2019-05-05T01:23:24.524Z,99.90
2019-05-05T01:25:56.545Z,99.90
2019-05-05T01:28:26.809Z,99.90
2019-05-05T01:30:57.392Z,99.90
2019-05-05T01:33:30.110Z,99.90
2019-05-05T01:36:01.889Z,99.90
2019-05-05T01:38:37.911Z,99.90
2019-05-05T01:41:08.941Z,99.90
2019-05-05T01:43:37.570Z,99.90
2019-05-05T01:46:06.788Z,99.90
2019-05-05T01:48:35.892Z,99.90
2019-05-05T01:51:05.099Z,99.90
2019-05-05T01:53:34.934Z,99.90
2019-05-05T01:56:04.825Z,99.90
2019-05-05T01:58:35.593Z,99.90
2019-05-05T02:01:05.081Z,99.90
2019-05-05T02:03:34.995Z,99.90
2019-05-05T02:06:05.247Z,99.90
2019-05-05T02:08:34.988Z,99.90
2019-05-05T02:11:05.204Z,99.90
2019-05-05T02:13:34.651Z,99.90
2019-05-05T02:16:04.663Z,99.90
2019-05-05T02:18:34.556Z,99.90
2019-05-05T02:21:07.808Z,99.90
2019-05-05T02:23:37.152Z,99.90
2019-05-05T02:26:07.650Z,99.90
2019-05-05T02:28:40.953Z,99.90
2019-05-05T02:31:16.943Z,99.90
2019-05-05T02:33:46.057Z,99.90
2019-05-05T02:36:15.938Z,99.90
2019-05-05T02:38:46.177Z,99.90
2019-05-05T02:41:16.294Z,99.90
2019-05-05T02:43:45.785Z,99.90
2019-05-05T02:46:31.768Z,99.90
2019-05-05T02:49:05.362Z,99.90
2019-05-05T02:51:37.727Z,99.90
2019-05-05T02:54:06.945Z,99.90
2019-05-05T02:56:39.776Z,99.90
2019-05-05T02:59:10.751Z,99.90
2019-05-05T03:01:41.193Z,99.90
2019-05-05T03:04:10.488Z,99.90
2019-05-05T03:06:43.734Z,99.90
2019-05-05T03:09:15.177Z,99.90
2019-05-05T03:11:47.822Z,99.90
2019-05-05T03:14:19.687Z,99.90
2019-05-05T03:16:49.656Z,99.90
2019-05-05T03:19:23.543Z,99.90
2019-05-05T03:21:54.556Z,99.90
2019-05-05T03:24:23.636Z,99.90
2019-05-05T03:26:54.175Z,99.90
2019-05-05T03:29:24.375Z,99.90
2019-05-05T03:31:56.230Z,99.90
2019-05-05T03:34:24.125Z,99.90
2019-05-05T03:36:53.716Z,99.90
2019-05-05T03:39:24.294Z,99.90
2019-05-05T03:42:13.810Z,99.90
2019-05-05T03:44:54.495Z,99.90
2019-05-05T03:47:24.158Z,99.90
2019-05-05T03:49:53.647Z,99.90
2019-05-05T03:52:24.433Z,99.90
2019-05-05T03:54:55.522Z,99.90
2019-05-05T03:57:24.722Z,99.90
2019-05-05T03:59:54.749Z,99.90
2019-05-05T04:02:34.242Z,99.90
2019-05-05T04:05:07.505Z,99.90
2019-05-05T04:07:36.709Z,99.90
2019-05-05T04:10:06.843Z,99.90
2019-05-05T04:12:35.832Z,99.90
2019-05-05T04:15:06.101Z,99.90
2019-05-05T04:17:44.306Z,99.90
2019-05-05T04:20:18.734Z,99.90
2019-05-05T04:22:49.712Z,99.90
2019-05-05T04:25:18.419Z,99.90
2019-05-05T04:27:46.987Z,99.90
2019-05-05T04:30:15.702Z,99.90
2019-05-05T04:32:44.344Z,99.90
2019-05-05T04:35:14.124Z,99.90
2019-05-05T04:37:43.743Z,99.90
2019-05-05T04:40:14.881Z,99.90
2019-05-05T04:42:44.123Z,99.90
2019-05-05T04:45:14.786Z,99.90
2019-05-05T04:47:45.381Z,99.90
2019-05-05T04:50:18.322Z,99.90
2019-05-05T04:52:46.331Z,99.90
2019-05-05T04:55:16.758Z,99.90
2019-05-05T04:57:45.343Z,99.90
2019-05-05T05:00:14.407Z,99.90
2019-05-05T05:02:56.410Z,99.90
2019-05-05T05:05:26.682Z,99.90
2019-05-05T05:07:57.900Z,99.90
2019-05-05T05:10:25.631Z,99.90
2019-05-05T05:12:57.324Z,99.90
2019-05-05T05:15:27.504Z,99.90
2019-05-05T05:18:06.284Z,99.90
2019-05-05T05:20:34.907Z,99.90
2019-05-05T05:23:03.775Z,99.90
2019-05-05T05:25:34.662Z,99.90
2019-05-05T05:28:04.167Z,99.90
2019-05-05T05:30:34.823Z,99.90
2019-05-05T05:33:04.393Z,99.90
2019-05-05T05:35:34.608Z,99.90
2019-05-05T05:38:04.854Z,99.90
2019-05-05T05:40:53.563Z,99.90
2019-05-05T05:43:28.514Z,99.90
2019-05-05T05:45:58.756Z,99.90
2019-05-05T05:48:34.063Z,99.90
2019-05-05T05:51:04.262Z,99.90
2019-05-05T05:53:35.009Z,99.90
2019-05-05T05:56:04.383Z,99.90
2019-05-05T05:58:39.231Z,99.90
2019-05-05T06:01:07.858Z,99.90
2019-05-05T06:03:36.491Z,99.90
2019-05-05T06:06:05.223Z,99.90
2019-05-05T06:08:37.237Z,99.90
2019-05-05T06:11:05.793Z,99.90
2019-05-05T06:13:34.448Z,99.90
2019-05-05T06:16:04.232Z,99.90
2019-05-05T06:18:34.510Z,99.90
2019-05-05T06:21:05.888Z,99.90
2019-05-05T06:23:34.695Z,99.90
2019-05-05T06:26:06.802Z,99.90
2019-05-05T06:28:34.301Z,99.90
2019-05-05T06:31:04.883Z,99.90
2019-05-05T06:33:34.769Z,99.90
2019-05-05T06:36:03.885Z,99.90
2019-05-05T06:38:37.323Z,99.90
2019-05-05T06:41:17.030Z,99.90
2019-05-05T06:44:03.801Z,99.90
2019-05-05T06:46:50.552Z,99.90
2019-05-05T06:49:19.257Z,99.90
2019-05-05T06:51:49.706Z,99.90
2019-05-05T06:54:18.304Z,99.90
2019-05-05T06:56:47.265Z,99.90
2019-05-05T06:59:15.991Z,99.90
2019-05-05T07:01:44.977Z,99.90
2019-05-05T07:04:14.012Z,99.90
2019-05-05T07:06:53.518Z,99.90
2019-05-05T07:09:14.268Z,99.90
2019-05-05T07:11:44.589Z,99.90
2019-05-05T07:14:14.277Z,99.90
2019-05-05T07:16:46.125Z,99.90
2019-05-05T07:19:14.779Z,99.90
2019-05-05T07:21:43.703Z,99.90
2019-05-05T07:24:14.539Z,99.90
2019-05-05T07:26:44.691Z,99.90
2019-05-05T07:29:16.330Z,99.90
2019-05-05T07:31:43.921Z,99.90
2019-05-05T07:34:14.203Z,99.90
2019-05-05T07:36:46.176Z,99.90
2019-05-05T07:39:16.251Z,99.90
2019-05-05T07:41:54.144Z,99.90
2019-05-05T07:44:29.040Z,99.90
2019-05-05T07:46:54.340Z,99.90
2019-05-05T07:49:24.360Z,99.90
2019-05-05T07:51:54.656Z,99.90
2019-05-05T07:54:25.647Z,99.90
2019-05-05T07:56:55.928Z,99.90
2019-05-05T07:59:24.606Z,99.90
2019-05-05T08:01:54.795Z,99.90
2019-05-05T08:04:24.338Z,99.90
2019-05-05T08:06:56.466Z,99.90
2019-05-05T08:09:25.163Z,99.90
2019-05-05T08:11:58.275Z,99.90
2019-05-05T08:14:31.094Z,99.90
2019-05-05T08:17:04.139Z,99.90
2019-05-05T08:19:40.349Z,99.90
2019-05-05T08:22:26.278Z,99.90
2019-05-05T08:25:14.569Z,99.90
2019-05-05T08:28:00.113Z,99.90
2019-05-05T08:30:40.130Z,99.90
2019-05-05T08:33:14.264Z,99.90
2019-05-05T08:35:54.248Z,99.90
2019-05-05T08:38:28.289Z,99.90
2019-05-05T08:41:04.733Z,99.90
2019-05-05T08:43:43.974Z,99.90
2019-05-05T08:49:17.075Z,99.90
2019-05-05T08:51:46.284Z,99.90
2019-05-05T08:54:18.118Z,99.90
2019-05-05T08:57:09.205Z,99.90
2019-05-05T08:59:39.490Z,99.90
2019-05-05T09:02:11.903Z,99.90
2019-05-05T09:04:47.456Z,99.90
2019-05-05T09:07:20.478Z,99.90
2019-05-05T09:10:06.634Z,99.90
2019-05-05T09:12:37.727Z,99.90
2019-05-05T09:15:08.174Z,99.90
2019-05-05T09:17:39.430Z,99.90
2019-05-05T09:20:08.189Z,99.90
2019-05-05T09:22:37.301Z,99.90
2019-05-05T09:25:37.036Z,99.90
2019-05-05T09:28:16.898Z,95.90
2019-05-05T09:30:47.215Z,98.60
2019-05-05T09:33:18.314Z,97.40
2019-05-05T09:35:46.658Z,97.70
2019-05-05T09:38:15.400Z,99.90
2019-05-05T09:40:45.588Z,99.90
2019-05-05T09:43:15.821Z,99.90
2019-05-05T09:45:46.103Z,99.90
2019-05-05T09:48:27.094Z,99.90
2019-05-05T09:50:57.796Z,99.90
2019-05-05T09:53:27.391Z,95.20
2019-05-05T09:55:57.687Z,93.40
2019-05-05T09:58:26.555Z,94.90
2019-05-05T10:00:59.636Z,96.70
2019-05-05T10:03:28.343Z,93.20
2019-05-05T10:05:57.103Z,90.10
2019-05-05T10:08:26.463Z,87.00
2019-05-05T10:10:55.433Z,82.00
2019-05-05T10:13:24.235Z,83.30
2019-05-05T10:15:54.801Z,79.10
2019-05-05T10:18:25.509Z,77.00
2019-05-05T10:20:56.422Z,79.20
2019-05-05T10:23:29.498Z,76.30
2019-05-05T10:26:01.279Z,71.60
2019-05-05T10:28:30.572Z,73.10
2019-05-05T10:31:01.521Z,67.50
2019-05-05T10:33:30.276Z,67.10
2019-05-05T10:36:00.413Z,66.10
2019-05-05T10:38:34.136Z,64.70
2019-05-05T10:41:04.278Z,66.90
2019-05-05T10:43:34.348Z,68.50
2019-05-05T10:46:05.581Z,72.00
2019-05-05T10:48:35.885Z,72.10
2019-05-05T10:51:04.875Z,75.80
2019-05-05T10:53:33.673Z,80.30
2019-05-05T10:56:04.290Z,78.40
2019-05-05T10:58:33.589Z,76.40
2019-05-05T11:01:04.199Z,71.90
2019-05-05T11:03:34.428Z,71.10
2019-05-05T11:06:04.528Z,70.50
2019-05-05T11:08:35.623Z,72.80
2019-05-05T11:11:05.081Z,71.20
2019-05-05T11:13:37.278Z,70.60
2019-05-05T11:16:06.370Z,72.50
2019-05-05T11:18:35.345Z,73.90
2019-05-05T11:21:05.049Z,76.00
2019-05-05T11:23:34.597Z,76.40
2019-05-05T11:26:14.156Z,77.60
2019-05-05T11:28:40.406Z,77.50
2019-05-05T11:31:10.776Z,78.10
2019-05-05T11:33:41.164Z,80.70
2019-05-05T11:36:20.199Z,80.80
2019-05-05T11:38:49.507Z,81.70
2019-05-05T11:41:18.139Z,84.80
2019-05-05T11:43:46.866Z,83.10
2019-05-05T11:46:15.644Z,85.20
2019-05-05T11:48:48.641Z,83.20
2019-05-05T11:51:18.782Z,78.40
2019-05-05T11:53:47.518Z,82.00
2019-05-05T11:56:19.044Z,81.20
2019-05-05T11:58:55.674Z,84.60
2019-05-05T12:01:27.379Z,83.70
2019-05-05T12:04:11.638Z,82.10
2019-05-05T12:06:46.280Z,80.50
2019-05-05T12:09:17.387Z,77.50
2019-05-05T12:11:51.410Z,80.10
2019-05-05T12:14:26.477Z,79.30
2019-05-05T12:16:53.718Z,82.40
2019-05-05T12:19:26.843Z,86.30
2019-05-05T12:21:57.792Z,87.80
2019-05-05T12:24:28.248Z,88.40
2019-05-05T12:27:03.661Z,87.00
2019-05-05T12:29:35.347Z,86.50
2019-05-05T12:32:07.403Z,85.20
2019-05-05T12:34:39.218Z,85.60
2019-05-05T12:37:09.176Z,83.20
2019-05-05T12:39:37.862Z,84.20
2019-05-05T12:42:06.829Z,85.20
2019-05-05T12:44:37.115Z,87.60
2019-05-05T12:47:08.966Z,87.30
2019-05-05T12:49:40.824Z,83.70
2019-05-05T12:52:10.673Z,84.90
2019-05-05T12:54:39.421Z,84.30
2019-05-05T12:57:09.795Z,88.50
2019-05-05T12:59:41.171Z,88.90
2019-05-05T13:02:14.419Z,86.10
2019-05-05T13:04:44.589Z,88.80
2019-05-05T13:07:15.913Z,85.90
2019-05-05T13:09:45.238Z,84.50
2019-05-05T13:12:15.156Z,86.90
2019-05-05T13:14:43.961Z,84.30
2019-05-05T13:17:19.600Z,87.20
2019-05-05T13:19:52.943Z,86.60
2019-05-05T13:22:33.772Z,90.20
2019-05-05T13:25:20.477Z,88.40
2019-05-05T13:27:49.278Z,88.10
2019-05-05T13:30:19.635Z,90.50
2019-05-05T13:32:51.596Z,91.20
2019-05-05T13:35:20.939Z,91.10
2019-05-05T13:37:54.914Z,91.90
2019-05-05T13:40:28.762Z,90.40
2019-05-05T13:43:04.113Z,91.20
2019-05-05T13:45:34.277Z,92.00
2019-05-05T13:48:04.700Z,92.90
2019-05-05T13:50:35.200Z,95.00
2019-05-05T13:53:04.055Z,93.20
2019-05-05T13:55:35.680Z,92.90
2019-05-05T13:58:08.669Z,92.40
2019-05-05T14:00:38.102Z,93.70
2019-05-05T14:03:07.665Z,94.10
2019-05-05T14:05:38.079Z,92.90
2019-05-05T14:08:07.091Z,92.60
2019-05-05T14:10:37.437Z,93.60
2019-05-05T14:13:10.409Z,93.90
2019-05-05T14:15:38.314Z,92.50
2019-05-05T14:18:17.638Z,93.20
2019-05-05T14:20:48.458Z,91.80
2019-05-05T14:23:21.269Z,93.30
2019-05-05T14:25:54.427Z,93.50
2019-05-05T14:28:25.081Z,93.80
2019-05-05T14:31:01.353Z,92.40
2019-05-05T14:33:34.975Z,92.70
2019-05-05T14:36:15.302Z,93.40
2019-05-05T14:38:41.023Z,93.50
2019-05-05T14:41:30.781Z,93.00
2019-05-05T14:44:04.337Z,93.10
2019-05-05T14:46:34.058Z,92.70
2019-05-05T14:49:15.197Z,91.90
2019-05-05T14:51:45.539Z,92.50
2019-05-05T14:54:14.955Z,94.20
2019-05-05T14:56:49.347Z,95.00
2019-05-05T14:59:20.614Z,93.80
2019-05-05T15:01:55.737Z,94.10
2019-05-05T15:04:28.769Z,94.10
2019-05-05T15:07:03.616Z,95.20
2019-05-05T15:09:41.125Z,96.50
2019-05-05T15:12:27.479Z,96.50
2019-05-05T15:14:57.773Z,97.10
2019-05-05T15:17:33.776Z,97.20
2019-05-05T15:20:02.674Z,97.60
2019-05-05T15:22:31.316Z,98.30
2019-05-05T15:25:06.549Z,99.10
2019-05-05T15:27:36.732Z,99.10
2019-05-05T15:30:09.249Z,99.50
2019-05-05T15:32:39.422Z,99.90
2019-05-05T15:35:20.237Z,99.90
2019-05-05T15:37:48.672Z,99.90
2019-05-05T15:40:17.936Z,99.90
2019-05-05T15:42:48.036Z,99.90
2019-05-05T15:45:23.419Z,99.90
2019-05-05T15:47:53.902Z,99.90
2019-05-05T15:50:23.587Z,99.90
2019-05-05T15:52:54.698Z,99.90
2019-05-05T15:55:27.632Z,99.90
2019-05-05T15:57:56.481Z,99.90
2019-05-05T16:00:27.261Z,99.90
2019-05-05T16:02:59.446Z,99.90
2019-05-05T16:05:29.592Z,99.90
2019-05-05T16:08:04.520Z,99.90
2019-05-05T16:10:38.492Z,99.90
2019-05-05T16:13:08.882Z,99.90
2019-05-05T16:15:39.214Z,99.90
2019-05-05T16:18:29.024Z,99.90
2019-05-05T16:21:08.222Z,99.90
2019-05-05T16:23:47.806Z,99.90
2019-05-05T16:26:20.846Z,99.90
2019-05-05T16:28:49.490Z,99.90
2019-05-05T16:31:19.800Z,99.90
2019-05-05T16:33:55.814Z,99.90
2019-05-05T16:36:24.496Z,99.90
2019-05-05T16:38:59.657Z,99.90
2019-05-05T16:41:28.390Z,99.90
2019-05-05T16:44:03.223Z,99.90
2019-05-05T16:46:40.268Z,99.90
2019-05-05T16:49:10.802Z,99.90
2019-05-05T16:51:43.898Z,99.90
2019-05-05T16:54:18.846Z,99.90
2019-05-05T16:56:50.632Z,99.90
2019-05-05T16:59:23.789Z,99.90
2019-05-05T17:01:54.166Z,99.90
2019-05-05T17:04:26.099Z,99.90
2019-05-05T17:07:03.899Z,99.90
2019-05-05T17:09:35.211Z,99.90
2019-05-05T17:12:09.539Z,99.90
2019-05-05T17:14:46.353Z,99.90
2019-05-05T17:17:26.044Z,99.90
2019-05-05T17:19:56.551Z,99.90
2019-05-05T17:22:30.878Z,99.90
2019-05-05T17:25:03.381Z,99.90
2019-05-05T17:27:47.861Z,99.90
2019-05-05T17:30:11.809Z,99.90
2019-05-05T17:32:45.252Z,99.90
2019-05-05T17:35:17.881Z,99.90
2019-05-05T17:37:46.663Z,99.90
2019-05-05T17:40:18.170Z,99.90
2019-05-05T17:42:53.580Z,99.90
2019-05-05T17:45:26.477Z,99.90
2019-05-05T17:47:56.744Z,99.90
2019-05-05T17:50:29.720Z,99.90
2019-05-05T17:53:09.051Z,99.90
2019-05-05T17:55:39.402Z,99.90
2019-05-05T17:58:11.373Z,99.90
2019-05-05T18:00:43.899Z,99.90
2019-05-05T18:03:12.194Z,99.90
2019-05-05T18:06:05.885Z,99.90
2019-05-05T18:08:54.579Z,99.90
2019-05-05T18:11:35.230Z,99.90
2019-05-05T18:14:05.820Z,99.90
2019-05-05T18:16:38.129Z,99.90
2019-05-05T18:19:09.638Z,99.90
2019-05-05T18:21:39.615Z,99.90
2019-05-05T18:24:13.774Z,99.90
2019-05-05T18:26:46.047Z,99.90
2019-05-05T18:29:17.224Z,99.90
2019-05-05T18:31:46.317Z,99.90
2019-05-05T18:34:15.203Z,99.90
2019-05-05T18:36:46.495Z,99.90
2019-05-05T18:39:15.173Z,99.90
2019-05-05T18:41:47.353Z,99.90
2019-05-05T18:44:27.197Z,99.90
2019-05-05T18:47:15.671Z,99.90
2019-05-05T18:49:48.646Z,99.90
2019-05-05T18:52:17.639Z,99.90
2019-05-05T18:54:47.340Z,99.90
2019-05-05T18:57:16.043Z,99.90
2019-05-05T18:59:45.007Z,99.90
2019-05-05T19:02:15.356Z,99.90
2019-05-05T19:05:04.810Z,99.90
2019-05-05T19:07:39.202Z,99.90
2019-05-05T19:10:10.954Z,99.90
2019-05-05T19:12:44.287Z,99.90
2019-05-05T19:15:13.871Z,99.90
2019-05-05T19:17:45.336Z,99.90
2019-05-05T19:20:35.022Z,99.90
2019-05-05T19:23:05.755Z,99.90
2019-05-05T19:25:35.524Z,99.90
2019-05-05T19:28:05.597Z,99.90
2019-05-05T19:30:36.189Z,99.90
2019-05-05T19:33:05.384Z,99.90
2019-05-05T19:35:43.591Z,99.90
2019-05-05T19:38:05.027Z,99.90
2019-05-05T19:40:36.181Z,99.90
2019-05-05T19:43:06.316Z,99.90
2019-05-05T19:45:36.198Z,99.90
2019-05-05T19:48:06.309Z,99.90
2019-05-05T19:50:37.356Z,99.90
2019-05-05T19:53:07.861Z,99.90
2019-05-05T19:55:39.350Z,99.90
2019-05-05T19:58:13.554Z,99.90
2019-05-05T20:00:45.262Z,99.90
2019-05-05T20:03:19.018Z,99.90
2019-05-05T20:05:49.010Z,99.90
2019-05-05T20:08:23.956Z,99.90
2019-05-05T20:10:54.337Z,99.90
2019-05-05T20:13:26.133Z,99.90
2019-05-05T20:16:08.346Z,99.90
2019-05-05T20:18:38.655Z,99.90
2019-05-05T20:21:07.551Z,99.90
2019-05-05T20:23:38.121Z,99.90
2019-05-05T20:26:06.879Z,99.90
2019-05-05T20:28:38.720Z,99.90
2019-05-05T20:31:07.310Z,99.90
2019-05-05T20:33:45.656Z,99.90
2019-05-05T20:36:23.719Z,99.90
2019-05-05T20:38:59.244Z,99.90
2019-05-05T20:41:28.157Z,99.90
2019-05-05T20:43:56.661Z,99.90
2019-05-05T20:46:25.619Z,99.90
2019-05-05T20:48:55.732Z,99.90
2019-05-05T20:51:24.456Z,99.90
2019-05-05T20:53:58.394Z,99.90
2019-05-05T20:56:29.652Z,99.90
2019-05-05T20:58:59.661Z,99.90
2019-05-05T21:01:28.263Z,99.90
2019-05-05T21:03:59.231Z,99.90
2019-05-05T21:06:27.265Z,99.90
2019-05-05T21:08:55.933Z,99.90
2019-05-05T21:11:27.169Z,99.90
2019-05-05T21:14:06.167Z,99.90
2019-05-05T21:16:27.617Z,99.90
2019-05-05T21:19:14.058Z,99.90
2019-05-05T21:21:44.628Z,99.90
2019-05-05T21:24:19.193Z,99.90
2019-05-05T21:26:54.900Z,99.90
2019-05-05T21:29:38.428Z,99.90
2019-05-05T21:31:58.661Z,99.90
2019-05-05T21:34:30.193Z,99.90
2019-05-05T21:36:59.269Z,99.90
2019-05-05T21:39:29.805Z,99.90
2019-05-05T21:41:58.687Z,99.90
2019-05-05T21:44:27.302Z,99.90
2019-05-05T21:46:59.154Z,99.90
2019-05-05T21:49:26.825Z,99.90
2019-05-05T21:52:14.879Z,99.90
2019-05-05T21:54:45.088Z,99.90
2019-05-05T21:57:31.502Z,99.90
2019-05-05T22:00:00.220Z,99.90
2019-05-05T22:02:29.291Z,99.90
2019-05-05T22:04:58.947Z,99.90
2019-05-05T22:07:34.288Z,99.90
2019-05-05T22:10:04.465Z,99.90
2019-05-05T22:12:40.852Z,99.90
2019-05-05T22:15:09.873Z,99.90
2019-05-05T22:17:41.499Z,99.90
2019-05-05T22:20:15.440Z,99.90
2019-05-05T22:22:45.253Z,99.90
2019-05-05T22:25:21.396Z,99.90
2019-05-05T22:27:52.133Z,99.90
2019-05-05T22:30:20.860Z,99.90
2019-05-05T22:32:55.410Z,99.90
2019-05-05T22:35:24.196Z,99.90
2019-05-05T22:37:53.432Z,99.90
2019-05-05T22:40:29.798Z,99.90
2019-05-05T22:42:58.562Z,99.90
2019-05-05T22:45:27.950Z,99.90
2019-05-05T22:47:58.180Z,99.90
2019-05-05T22:50:26.796Z,99.90
2019-05-05T22:52:55.758Z,99.90
2019-05-05T22:55:24.832Z,99.90
2019-05-05T22:57:54.398Z,99.90
2019-05-05T23:00:29.301Z,99.90
2019-05-05T23:03:13.673Z,99.90
2019-05-05T23:05:56.342Z,99.90
2019-05-05T23:08:28.246Z,99.90
2019-05-05T23:10:56.882Z,99.90
2019-05-05T23:13:25.605Z,99.90
2019-05-05T23:15:56.509Z,99.90
2019-05-05T23:18:27.589Z,99.90
2019-05-05T23:20:58.572Z,99.90
2019-05-05T23:23:41.294Z,99.90
2019-05-05T23:26:13.868Z,99.90
2019-05-05T23:28:41.772Z,99.90
2019-05-05T23:31:10.448Z,99.90
2019-05-05T23:33:40.741Z,99.90
2019-05-05T23:36:11.794Z,99.90
2019-05-05T23:38:46.707Z,99.90
2019-05-05T23:41:15.361Z,99.90
2019-05-05T23:43:45.051Z,99.90
2019-05-05T23:46:14.364Z,99.90
2019-05-05T23:48:43.315Z,99.90
2019-05-05T23:51:13.943Z,99.90
2019-05-05T23:53:45.072Z,99.90
2019-05-05T23:56:13.686Z,99.90
2019-05-05T23:58:44.148Z,99.90
